Time;durP1;ratioP1;P1;durP2;ratioP2;P2;SDS_P1;SDS_P2;PMS_P1;PMS_P2;Temp;Humidity;BMP_temperature;BMP_pressure;BME280_temperature;BME280_humidity;BME280_pressure;Samples;Min_cycle;Max_cycle;Signal;HPM_P1;HPM_P2
2023/01/01 00:01:27;;;;;;;8.65;5.40;;;;;;;8.02;89.81;99619.50;5075505;28;20188;-60
2023/01/01 00:03:55;;;;;;;9.15;6.80;;;;;;;8.43;90.56;99683.19;5074605;28;20633;-60
2023/01/01 00:06:21;;;;;;;10.00;6.97;;;;;;;8.33;92.20;99666.44;5074746;28;20181;-60
2023/01/01 00:08:47;;;;;;;7.40;5.95;;;;;;;8.37;91.32;99683.44;5074811;28;20178;-60
2023/01/01 00:11:13;;;;;;;5.97;5.00;;;;;;;8.15;89.59;99625.88;5075069;28;20230;-60
2023/01/01 00:13:40;;;;;;;5.72;5.13;;;;;;;8.28;89.75;99670.94;5074742;28;20189;-60
2023/01/01 00:16:08;;;;;;;5.90;5.30;;;;;;;8.27;90.86;99680.38;5074714;28;20176;-60
2023/01/01 00:18:35;;;;;;;5.68;4.65;;;;;;;8.11;90.58;99644.94;5074667;28;20693;-60
2023/01/01 00:21:04;;;;;;;4.78;4.32;;;;;;;8.06;89.59;99616.75;5075134;28;20200;-60
2023/01/01 00:23:30;;;;;;;5.32;4.13;;;;;;;8.46;88.51;99681.34;5074537;28;20266;-60
2023/01/01 00:25:58;;;;;;;5.47;4.05;;;;;;;8.45;87.30;99671.91;5074540;28;20181;-59
2023/01/01 00:28:23;;;;;;;4.40;3.90;;;;;;;8.32;86.72;99652.69;5074382;28;20208;-59
2023/01/01 00:30:49;;;;;;;4.72;4.30;;;;;;;7.87;87.30;99581.47;5074886;28;20180;-58
2023/01/01 00:33:14;;;;;;;4.68;4.00;;;;;;;8.13;87.28;99619.91;5074700;28;20264;-60
2023/01/01 00:35:39;;;;;;;4.40;4.00;;;;;;;8.19;87.39;99627.41;5074606;28;20527;-60
2023/01/01 00:38:05;;;;;;;6.15;5.10;;;;;;;8.41;88.98;99683.28;5074801;28;20271;-60
2023/01/01 00:40:31;;;;;;;9.95;5.60;;;;;;;7.77;90.48;99587.88;5074231;28;20559;-60
2023/01/01 00:42:57;;;;;;;6.45;5.55;;;;;;;8.08;91.68;99630.41;5074181;28;20275;-60
2023/01/01 00:45:22;;;;;;;11.13;7.30;;;;;;;8.26;93.01;99686.44;5074207;28;20176;-60
2023/01/01 00:47:52;;;;;;;7.85;6.65;;;;;;;7.96;93.68;99641.22;5073955;28;20216;-60
2023/01/01 00:50:18;;;;;;;5.97;5.38;;;;;;;8.26;93.93;99691.59;5073694;28;20179;-60
2023/01/01 00:52:44;;;;;;;7.07;4.88;;;;;;;7.88;93.63;99630.38;5074527;28;20185;-59
2023/01/01 00:55:10;;;;;;;4.68;3.78;;;;;;;8.23;91.22;99675.41;5073721;28;20575;-60
2023/01/01 00:57:35;;;;;;;4.75;4.22;;;;;;;7.99;90.41;99645.41;5074208;28;20181;-60
2023/01/01 01:00:00;;;;;;;5.57;4.97;;;;;;;8.11;92.61;99681.03;5073843;28;20181;-60
2023/01/01 01:02:26;;;;;;;5.85;4.72;;;;;;;7.87;91.60;99644.13;5073799;28;20173;-59
2023/01/01 01:04:51;;;;;;;9.38;6.35;;;;;;;8.19;92.39;99689.28;5074041;28;20172;-60
2023/01/01 01:07:16;;;;;;;7.55;5.60;;;;;;;8.14;92.67;99692.06;5073656;28;20200;-60
2023/01/01 01:09:42;;;;;;;7.40;5.80;;;;;;;8.27;92.82;99711.31;5073743;28;20531;-60
2023/01/01 01:12:07;;;;;;;6.00;5.03;;;;;;;8.33;91.64;99700.78;5073593;28;20177;-60
2023/01/01 01:14:33;;;;;;;8.98;6.05;;;;;;;8.30;90.86;99711.22;5073563;28;20313;-60
2023/01/01 01:16:58;;;;;;;5.93;5.32;;;;;;;8.15;91.53;99688.56;5074012;28;20203;-60
2023/01/01 01:19:25;;;;;;;9.40;6.30;;;;;;;8.23;92.55;99706.34;5073776;28;20169;-60
2023/01/01 01:21:51;;;;;;;8.38;5.75;;;;;;;7.97;91.33;99647.19;5073948;28;20205;-60
2023/01/01 01:24:16;;;;;;;8.07;5.50;;;;;;;8.29;91.13;99711.28;5073336;28;20231;-60
2023/01/01 01:26:42;;;;;;;5.40;4.90;;;;;;;8.04;89.44;99661.53;5073253;28;20318;-60
2023/01/01 01:29:08;;;;;;;7.03;4.63;;;;;;;7.91;88.69;99622.50;5073873;28;20181;-60
2023/01/01 01:31:33;;;;;;;8.60;5.47;;;;;;;8.27;89.53;99692.47;5073189;28;20269;-59
2023/01/01 01:33:59;;;;;;;5.25;4.68;;;;;;;8.34;89.63;99688.75;5073137;28;20184;-60
2023/01/01 01:36:26;;;;;;;6.20;5.13;;;;;;;7.83;89.44;99598.78;5073122;28;20185;-60
2023/01/01 01:38:52;;;;;;;5.57;5.07;;;;;;;7.97;89.55;99618.84;5073383;28;20180;-60
2023/01/01 01:41:20;;;;;;;6.72;4.45;;;;;;;7.99;88.26;99615.31;5073019;28;20196;-60
2023/01/01 01:44:03;;;;;;;6.55;4.80;;;;;;;7.66;89.08;99570.25;5072950;28;20678;-60
2023/01/01 01:46:35;;;;;;;5.80;4.63;;;;;;;8.12;89.10;99639.72;5072858;28;20663;-60
2023/01/01 01:49:13;;;;;;;7.10;5.30;;;;;;;7.94;89.57;99609.50;5073226;28;20260;-60
2023/01/01 01:51:39;;;;;;;7.45;5.50;;;;;;;7.90;88.49;99612.25;5073488;28;20245;-60
2023/01/01 01:54:11;;;;;;;5.40;4.85;;;;;;;7.97;90.13;99603.38;5072770;28;20599;-60
2023/01/01 01:56:48;;;;;;;5.70;4.93;;;;;;;7.79;88.76;99584.31;5073342;28;20541;-60
2023/01/01 01:59:16;;;;;;;7.47;5.18;;;;;;;7.91;90.44;99617.34;5073322;28;20226;-60
2023/01/01 02:01:41;;;;;;;6.10;5.30;;;;;;;8.06;91.09;99662.31;5072738;28;20658;-60
2023/01/01 02:04:07;;;;;;;8.93;5.10;;;;;;;7.82;91.72;99617.69;5072662;28;20209;-60
2023/01/01 02:06:34;;;;;;;7.22;4.57;;;;;;;8.21;91.78;99662.59;5073359;28;20192;-60
2023/01/01 02:09:03;;;;;;;7.63;4.40;;;;;;;7.98;91.13;99623.94;5073184;28;20177;-60
2023/01/01 02:11:28;;;;;;;5.82;4.60;;;;;;;8.24;92.00;99665.06;5072586;28;20529;-60
2023/01/01 02:13:55;;;;;;;5.13;4.63;;;;;;;7.88;91.59;99612.34;5072588;28;20176;-60
2023/01/01 02:16:32;;;;;;;5.63;4.78;;;;;;;8.33;91.12;99679.31;5071770;28;20185;-60
2023/01/01 02:19:11;;;;;;;4.95;4.45;;;;;;;7.95;91.05;99618.91;5072866;28;20244;-60
2023/01/01 02:21:51;;;;;;;4.47;3.95;;;;;;;7.89;90.10;99613.16;5072783;28;20554;-60
2023/01/01 02:24:28;;;;;;;5.22;4.13;;;;;;;7.90;90.67;99620.84;5072482;28;20161;-60
2023/01/01 02:27:02;;;;;;;8.18;5.28;;;;;;;7.98;89.61;99618.78;5072913;28;20549;-60
2023/01/01 02:29:37;;;;;;;11.48;6.60;;;;;;;8.24;90.70;99672.78;5072731;28;20200;-59
2023/01/01 02:32:13;;;;;;;8.90;5.95;;;;;;;7.97;90.78;99627.41;5072823;28;20273;-60
2023/01/01 02:35:33;;;;;;;9.43;7.18;;;;;;;8.07;91.71;99653.66;5073141;28;20175;-60
2023/01/01 02:38:08;;;;;;;10.68;6.72;;;;;;;8.15;93.27;99677.44;5050908;28;20194;-61
2023/01/01 02:40:39;;;;;;;13.05;7.90;;;;;;;7.87;94.18;99636.38;5050138;28;20193;-60
2023/01/01 02:43:05;;;;;;;9.63;7.75;;;;;;;7.97;94.36;99655.75;5050699;28;20190;-60
2023/01/01 02:45:31;;;;;;;13.43;7.63;;;;;;;7.81;94.63;99651.25;5050649;28;20220;-60
2023/01/01 02:47:56;;;;;;;11.13;8.32;;;;;;;8.08;95.21;99676.81;5049873;28;20241;-60
2023/01/01 02:50:26;;;;;;;12.65;8.43;;;;;;;8.08;95.28;99681.97;5050037;28;20721;-60
2023/01/01 02:53:24;;;;;;;13.38;9.10;;;;;;;7.47;96.17;99615.59;5049850;28;20194;-60
2023/01/01 02:56:27;;;;;;;12.13;9.32;;;;;;;7.51;97.38;99622.31;5050048;28;20591;-60
2023/01/01 03:02:23;;;;;;;13.43;9.70;;;;;;;7.74;98.44;99681.56;5029783;28;20182;-60
2023/01/01 03:05:09;;;;;;;15.82;11.30;;;;;;;7.62;98.90;99663.97;4990830;28;20188;-60
2023/01/01 03:08:06;;;;;;;12.55;10.15;;;;;;;7.35;99.88;99634.06;4990656;28;20282;-60
2023/01/01 03:10:52;;;;;;;18.80;11.93;;;;;;;7.60;99.99;99683.81;4988539;28;20219;-60
2023/01/01 03:13:43;;;;;;;18.67;11.38;;;;;;;7.53;100.00;99671.19;4990737;28;20186;-60
2023/01/01 03:16:29;;;;;;;16.17;11.65;;;;;;;6.82;100.00;99572.56;4990988;28;20242;-60
2023/01/01 03:19:19;;;;;;;13.93;8.38;;;;;;;7.46;100.00;99670.56;4990335;28;20278;-60
2023/01/01 03:21:56;;;;;;;16.88;11.60;;;;;;;7.02;100.00;99608.69;4982222;28;20654;-60
2023/01/01 03:24:26;;;;;;;25.50;15.40;;;;;;;7.00;100.00;99654.25;4990268;28;20199;-61
2023/01/01 03:26:57;;;;;;;26.88;17.15;;;;;;;7.17;100.00;99672.53;4990498;28;20200;-60
2023/01/01 03:29:25;;;;;;;24.35;16.25;;;;;;;7.27;100.00;99673.84;4993222;28;20196;-60
2023/01/01 03:31:54;;;;;;;21.63;13.50;;;;;;;6.99;100.00;99609.66;4994075;28;20215;-60
2023/01/01 03:34:27;;;;;;;17.35;12.45;;;;;;;7.00;100.00;99623.38;4993827;28;20199;-60
2023/01/01 03:36:57;;;;;;;27.83;16.88;;;;;;;7.25;100.00;99681.66;5067270;28;20279;-60
2023/01/01 03:39:42;;;;;;;16.05;11.63;;;;;;;7.15;100.00;99670.00;5073088;28;20217;-60
2023/01/01 03:42:32;;;;;;;24.20;15.90;;;;;;;6.79;100.00;99624.94;5075228;28;20185;-60
2023/01/01 03:45:04;;;;;;;11.57;8.32;;;;;;;6.87;100.00;99616.97;5075293;28;20697;-60
2023/01/01 03:47:30;;;;;;;23.35;14.00;;;;;;;7.19;100.00;99671.56;5075086;28;20552;-60
2023/01/01 03:49:57;;;;;;;13.85;11.27;;;;;;;6.77;100.00;99631.03;5075734;28;20181;-60
2023/01/01 03:52:30;;;;;;;18.17;12.00;;;;;;;7.02;100.00;99658.44;5075177;28;20180;-60
2023/01/01 03:55:01;;;;;;;29.02;16.83;;;;;;;7.30;100.00;99692.63;5075129;28;20173;-60
2023/01/01 03:58:00;;;;;;;25.45;16.98;;;;;;;7.23;100.00;99682.59;5075568;28;20188;-60
2023/01/01 04:00:53;;;;;;;25.30;16.25;;;;;;;7.36;100.00;99695.00;5074996;28;20181;-60
2023/01/01 04:03:25;;;;;;;29.48;18.98;;;;;;;7.32;100.00;99706.28;5074328;28;20181;-60
2023/01/01 04:05:50;;;;;;;27.13;17.58;;;;;;;7.00;100.00;99644.78;5075468;28;20204;-60
2023/01/01 04:08:16;;;;;;;30.00;18.40;;;;;;;6.94;100.00;99639.84;5075296;28;20691;-60
2023/01/01 04:10:47;;;;;;;32.85;20.02;;;;;;;7.25;100.00;99704.81;5074879;28;20645;-60
2023/01/01 04:13:12;;;;;;;31.73;18.83;;;;;;;7.04;100.00;99659.22;5075065;28;20261;-60
2023/01/01 04:15:38;;;;;;;27.80;18.02;;;;;;;7.28;100.00;99691.81;5075230;28;20185;-60
2023/01/01 04:18:04;;;;;;;29.38;18.98;;;;;;;6.88;100.00;99634.91;5074614;28;20294;-60
2023/01/01 04:20:30;;;;;;;30.33;18.85;;;;;;;7.08;100.00;99678.81;5074581;28;20177;-60
2023/01/01 04:22:57;;;;;;;27.65;18.50;;;;;;;7.15;100.00;99676.84;5074299;28;20175;-61
2023/01/01 04:25:23;;;;;;;27.23;17.42;;;;;;;6.92;100.00;99649.34;5074575;28;20179;-60
2023/01/01 04:27:49;;;;;;;25.30;18.15;;;;;;;6.81;100.00;99648.88;5074957;28;20204;-60
2023/01/01 04:30:15;;;;;;;26.48;18.05;;;;;;;7.05;100.00;99689.19;5074967;28;20181;-60
2023/01/01 04:32:41;;;;;;;27.15;18.38;;;;;;;6.54;100.00;99613.78;5075202;28;20217;-60
2023/01/01 04:35:10;;;;;;;17.85;11.77;;;;;;;6.99;100.00;99673.97;5074361;28;20180;-60
2023/01/01 04:37:36;;;;;;;25.15;15.18;;;;;;;7.09;100.00;99690.78;5074828;28;20610;-60
2023/01/01 04:40:03;;;;;;;25.55;15.50;;;;;;;6.99;100.00;99693.75;5073941;28;20205;-60
2023/01/01 04:42:28;;;;;;;25.25;15.48;;;;;;;6.63;100.00;99623.78;5073833;28;20644;-61
2023/01/01 04:44:54;;;;;;;20.08;13.13;;;;;;;6.64;100.00;99633.16;5074166;28;20185;-60
2023/01/01 04:47:19;;;;;;;13.07;8.93;;;;;;;6.99;100.00;99673.97;5074094;28;20193;-60
2023/01/01 04:49:45;;;;;;;24.45;13.57;;;;;;;6.67;100.00;99635.66;5074632;28;20643;-60
2023/01/01 04:52:10;;;;;;;19.52;14.88;;;;;;;7.00;100.00;99680.78;5073731;28;20575;-60
2023/01/01 04:54:35;;;;;;;9.70;8.07;;;;;;;6.63;100.00;99622.91;5073941;28;20177;-60
2023/01/01 04:57:01;;;;;;;8.95;7.28;;;;;;;6.66;100.00;99610.81;5074541;28;20177;-60
2023/01/01 04:59:29;;;;;;;8.80;6.13;;;;;;;7.02;100.00;99694.47;5073873;28;20181;-60
2023/01/01 05:01:55;;;;;;;4.03;3.72;;;;;;;6.71;100.00;99616.63;5073516;28;20613;-60
2023/01/01 05:04:20;;;;;;;6.55;5.28;;;;;;;6.81;100.00;99637.75;5073791;28;20173;-60
2023/01/01 05:06:45;;;;;;;13.10;9.70;;;;;;;6.86;100.00;99641.84;5073642;28;20569;-60
2023/01/01 05:09:11;;;;;;;12.52;9.02;;;;;;;6.80;100.00;99636.91;5073710;28;20204;-60
2023/01/01 05:11:37;;;;;;;7.75;5.32;;;;;;;6.95;100.00;99651.84;5073942;28;20666;-60
2023/01/01 05:14:03;;;;;;;11.07;7.78;;;;;;;7.26;100.00;99709.06;5073824;28;20658;-60
2023/01/01 05:16:33;;;;;;;17.50;11.80;;;;;;;7.28;100.00;99706.44;5073267;28;20185;-61
2023/01/01 05:18:59;;;;;;;10.00;6.78;;;;;;;7.27;100.00;99710.75;5073800;28;20173;-60
2023/01/01 05:21:33;;;;;;;4.03;3.70;;;;;;;7.19;99.15;99687.00;5073426;28;20187;-60
2023/01/01 05:24:07;;;;;;;10.00;7.20;;;;;;;7.16;100.00;99691.44;5073644;28;20208;-60
2023/01/01 05:26:37;;;;;;;10.68;7.25;;;;;;;7.29;100.00;99718.44;5073895;28;20205;-60
2023/01/01 05:29:04;;;;;;;4.70;3.90;;;;;;;7.32;99.21;99716.59;5073660;28;20161;-60
2023/01/01 05:31:32;;;;;;;5.90;3.50;;;;;;;7.40;96.48;99721.47;5073715;28;20193;-60
2023/01/01 05:33:58;;;;;;;4.75;3.63;;;;;;;7.30;96.20;99704.66;5073491;28;20239;-60
2023/01/01 05:36:27;;;;;;;5.07;3.75;;;;;;;7.37;95.72;99701.81;5072887;28;20181;-60
2023/01/01 05:38:53;;;;;;;4.78;3.05;;;;;;;7.19;94.89;99663.84;5073092;28;20196;-60
2023/01/01 05:41:20;;;;;;;4.82;3.75;;;;;;;7.17;94.25;99668.19;5073312;28;20188;-60
2023/01/01 05:43:45;;;;;;;14.95;10.50;;;;;;;7.01;98.63;99631.03;5073043;28;20173;-60
2023/01/01 05:46:18;;;;;;;20.55;13.52;;;;;;;7.26;100.00;99682.47;5072962;28;20230;-60
2023/01/01 05:48:44;;;;;;;19.75;13.20;;;;;;;7.29;100.00;99683.22;5072918;28;20400;-60
2023/01/01 05:51:11;;;;;;;21.42;14.32;;;;;;;7.64;100.00;99741.22;5072190;28;20682;-60
2023/01/01 05:53:36;;;;;;;20.67;13.93;;;;;;;7.39;100.00;99730.91;5072517;28;20188;-60
2023/01/01 05:56:03;;;;;;;23.13;15.77;;;;;;;7.36;100.00;99736.19;5072785;28;20173;-60
2023/01/01 05:58:30;;;;;;;22.55;14.23;;;;;;;6.86;100.00;99651.28;5072761;28;20181;-60
2023/01/01 06:00:56;;;;;;;24.98;15.95;;;;;;;7.22;100.00;99729.81;5072692;28;20595;-60
2023/01/01 06:03:22;;;;;;;19.75;14.43;;;;;;;7.02;100.00;99699.63;5050803;28;20260;-60
2023/01/01 06:05:47;;;;;;;24.05;14.48;;;;;;;6.93;100.00;99694.78;5050573;28;20655;-60
2023/01/01 06:08:13;;;;;;;24.17;15.23;;;;;;;6.94;100.00;99691.28;5050403;28;20209;-60
2023/01/01 06:10:38;;;;;;;24.30;15.88;;;;;;;7.17;100.00;99739.44;5050809;28;20195;-60
2023/01/01 06:13:04;;;;;;;25.55;16.60;;;;;;;7.17;100.00;99717.09;5050319;28;20691;-60
2023/01/01 06:15:29;;;;;;;22.85;15.05;;;;;;;6.93;100.00;99692.19;5050221;28;20213;-60
2023/01/01 06:17:57;;;;;;;22.13;15.05;;;;;;;6.93;100.00;99717.91;5050248;28;20726;-60
2023/01/01 06:20:23;;;;;;;21.50;13.60;;;;;;;6.96;100.00;99730.69;5050688;28;20232;-60
2023/01/01 06:22:48;;;;;;;24.23;15.38;;;;;;;6.91;100.00;99709.44;5050584;28;20193;-60
2023/01/01 06:25:14;;;;;;;24.60;15.75;;;;;;;6.98;100.00;99728.91;5050077;28;20580;-60
2023/01/01 06:27:39;;;;;;;23.48;16.42;;;;;;;6.92;100.00;99734.25;5049996;28;20720;-60
2023/01/01 06:30:06;;;;;;;25.50;15.88;;;;;;;6.85;100.00;99707.06;5049981;28;20229;-60
2023/01/01 06:32:32;;;;;;;24.08;15.55;;;;;;;6.74;100.00;99678.28;5049775;28;20275;-60
2023/01/01 06:35:00;;;;;;;18.15;12.32;;;;;;;6.96;100.00;99704.97;5066878;28;20196;-60
2023/01/01 06:37:27;;;;;;;9.00;7.45;;;;;;;6.75;100.00;99664.50;5072041;28;20172;-60
2023/01/01 06:39:52;;;;;;;3.67;3.40;;;;;;;6.81;100.00;99648.88;5072814;28;20269;-60
2023/01/01 06:42:18;;;;;;;4.55;3.63;;;;;;;6.98;98.72;99638.84;5072256;28;20264;-60
2023/01/01 06:44:43;;;;;;;6.03;3.38;;;;;;;7.20;97.14;99651.81;5072243;28;20184;-60
2023/01/01 06:47:08;;;;;;;3.95;3.00;;;;;;;7.45;95.70;99684.34;5072218;28;20197;-60
2023/01/01 06:49:34;;;;;;;4.00;3.40;;;;;;;7.09;94.39;99602.44;5072212;28;20691;-60
2023/01/01 06:51:59;;;;;;;14.65;9.07;;;;;;;7.36;98.42;99661.53;5072974;28;20173;-60
2023/01/01 06:54:25;;;;;;;20.23;13.88;;;;;;;7.72;100.00;99713.41;5071867;28;20614;-59
2023/01/01 06:56:50;;;;;;;17.95;13.98;;;;;;;7.33;100.00;99659.03;5050360;28;20201;-60
2023/01/01 06:59:16;;;;;;;25.02;15.73;;;;;;;7.41;100.00;99672.47;5049904;28;20235;-60
2023/01/01 07:01:42;;;;;;;19.58;13.35;;;;;;;7.60;100.00;99701.00;5050534;28;20189;-60
2023/01/01 07:04:11;;;;;;;22.95;14.82;;;;;;;7.59;100.00;99692.44;5054535;28;20239;-60
2023/01/01 07:06:37;;;;;;;26.05;16.70;;;;;;;7.55;100.00;99688.28;5053731;28;20197;-60
2023/01/01 07:09:04;;;;;;;22.85;15.27;;;;;;;7.66;100.00;99717.06;5053681;28;20177;-60
2023/01/01 07:11:31;;;;;;;27.08;17.65;;;;;;;7.77;100.00;99740.72;5053690;28;20196;-60
2023/01/01 07:13:56;;;;;;;24.48;18.48;;;;;;;7.72;100.00;99739.19;5053592;28;20577;-60
2023/01/01 07:16:22;;;;;;;24.52;17.38;;;;;;;7.20;100.00;99652.66;5053585;28;20277;-59
2023/01/01 07:18:49;;;;;;;24.25;16.63;;;;;;;7.85;100.00;99741.25;5053507;28;20185;-59
2023/01/01 07:21:43;;;;;;;18.52;12.18;;;;;;;8.01;99.72;99738.97;5053344;28;20644;-59
2023/01/01 07:24:11;;;;;;;9.65;7.50;;;;;;;8.03;97.41;99732.84;5053936;28;20554;-59
2023/01/01 07:26:37;;;;;;;4.57;3.95;;;;;;;7.89;92.89;99686.16;5053241;28;20192;-60
2023/01/01 07:29:03;;;;;;;3.65;3.30;;;;;;;8.16;89.21;99687.66;5075917;28;20172;-59
2023/01/01 07:31:28;;;;;;;13.98;7.97;;;;;;;8.16;89.68;99669.63;5075377;28;20189;-59
2023/01/01 07:33:53;;;;;;;26.92;14.50;;;;;;;8.53;92.47;99726.66;5075745;28;20189;-59
2023/01/01 07:36:19;;;;;;;30.23;16.73;;;;;;;8.66;94.29;99743.31;5074918;28;20636;-59
2023/01/01 07:38:45;;;;;;;23.95;16.40;;;;;;;8.17;94.12;99671.31;5075993;28;20193;-59
2023/01/01 07:41:11;;;;;;;17.08;10.80;;;;;;;8.65;90.77;99741.63;5075916;28;20196;-60
2023/01/01 07:43:36;;;;;;;26.98;17.50;;;;;;;8.48;94.51;99694.19;5075791;28;20189;-60
2023/01/01 07:46:02;;;;;;;25.00;15.38;;;;;;;8.43;94.65;99696.94;5075275;28;20181;-60
2023/01/01 07:48:28;;;;;;;4.63;4.18;;;;;;;8.79;87.90;99741.91;5075154;28;20300;-60
2023/01/01 07:50:54;;;;;;;7.00;6.20;;;;;;;8.97;87.76;99754.06;5072972;28;20330;-59
2023/01/01 07:53:19;;;;;;;16.02;12.15;;;;;;;9.10;90.70;99759.59;5073061;28;20750;-60
2023/01/01 07:55:45;;;;;;;12.32;9.23;;;;;;;9.16;89.04;99749.00;5072938;28;20578;-60
2023/01/01 07:58:11;;;;;;;7.68;6.13;;;;;;;9.16;87.07;99744.69;5033423;28;20205;-60
2023/01/01 08:00:36;;;;;;;4.20;2.65;;;;;;;9.09;83.75;99701.94;5032875;28;20198;-60
2023/01/01 08:03:02;;;;;;;2.78;2.58;;;;;;;9.41;82.52;99732.41;5033229;28;20603;-60
2023/01/01 08:05:27;;;;;;;3.15;2.95;;;;;;;9.67;81.78;99746.78;5032676;28;20297;-60
2023/01/01 08:07:53;;;;;;;3.58;2.35;;;;;;;9.77;80.27;99754.91;5032672;28;20275;-60
2023/01/01 08:10:20;;;;;;;22.65;14.13;;;;;;;9.92;83.62;99759.41;5033090;28;20227;-60
2023/01/01 08:12:45;;;;;;;47.30;29.15;;;;;;;10.01;86.53;99778.84;5032536;28;20665;-60
2023/01/01 08:15:12;;;;;;;43.63;27.15;;;;;;;9.97;88.06;99778.13;5032009;28;20178;-60
2023/01/01 08:17:38;;;;;;;34.42;22.90;;;;;;;9.69;89.32;99751.00;5032876;28;20183;-60
2023/01/01 08:20:05;;;;;;;31.23;20.20;;;;;;;9.84;89.66;99776.16;5032334;28;20602;-60
2023/01/01 08:22:31;;;;;;;30.63;19.25;;;;;;;9.87;89.82;99782.03;5047658;28;20193;-60
2023/01/01 08:24:56;;;;;;;27.17;19.75;;;;;;;9.80;90.19;99777.22;5052692;28;20197;-60
2023/01/01 08:27:21;;;;;;;38.20;23.08;;;;;;;9.67;90.00;99751.97;5052092;28;20266;-60
2023/01/01 08:29:47;;;;;;;33.67;22.70;;;;;;;9.59;89.27;99744.53;5069174;28;20246;-60
2023/01/01 08:32:13;;;;;;;29.60;20.60;;;;;;;9.91;89.28;99804.25;5074397;28;20585;-60
2023/01/01 08:34:38;;;;;;;26.27;17.92;;;;;;;9.72;87.85;99766.34;5074399;28;20210;-60
2023/01/01 08:37:04;;;;;;;26.70;18.45;;;;;;;10.04;86.88;99823.53;5074381;28;20230;-60
2023/01/01 08:39:29;;;;;;;32.63;20.85;;;;;;;9.72;86.97;99765.53;5074318;28;20552;-60
2023/01/01 08:41:55;;;;;;;39.30;22.90;;;;;;;10.10;85.26;99835.38;5074802;28;20259;-60
2023/01/01 08:44:21;;;;;;;36.13;21.65;;;;;;;10.03;85.14;99805.47;5074003;28;20201;-60
2023/01/01 08:46:46;;;;;;;27.05;18.83;;;;;;;9.84;84.54;99765.81;5074049;28;20238;-60
2023/01/01 08:49:11;;;;;;;27.75;18.63;;;;;;;10.14;84.76;99814.47;5073904;28;20261;-60
2023/01/01 08:51:37;;;;;;;28.38;18.52;;;;;;;10.24;84.38;99814.88;5074090;28;20177;-60
2023/01/01 08:54:03;;;;;;;27.15;18.27;;;;;;;10.28;84.06;99809.50;5074033;28;20173;-60
2023/01/01 08:56:28;;;;;;;25.52;18.05;;;;;;;10.40;83.71;99827.06;5074488;28;20177;-60
2023/01/01 08:58:54;;;;;;;23.85;17.85;;;;;;;10.46;83.04;99823.38;5073958;28;20177;-60
2023/01/01 09:01:24;;;;;;;27.48;17.40;;;;;;;10.15;83.08;99755.84;5074200;28;20208;-60
2023/01/01 09:03:50;;;;;;;26.38;17.35;;;;;;;10.17;82.60;99760.00;5074388;28;20178;-60
2023/01/01 09:06:15;;;;;;;23.27;16.45;;;;;;;10.32;82.97;99768.81;5074333;28;20533;-60
2023/01/01 09:08:41;;;;;;;22.08;16.40;;;;;;;10.62;82.63;99814.00;5073696;28;20709;-60
2023/01/01 09:11:06;;;;;;;25.98;16.80;;;;;;;10.33;82.18;99742.06;5074479;28;20181;-60
2023/01/01 09:13:33;;;;;;;24.52;16.77;;;;;;;10.76;81.94;99796.91;5073592;28;20320;-60
2023/01/01 09:15:58;;;;;;;24.42;16.35;;;;;;;10.82;81.85;99791.44;5074110;28;20199;-60
2023/01/01 09:18:24;;;;;;;25.38;17.40;;;;;;;10.72;81.34;99759.13;5073771;28;20670;-60
2023/01/01 09:20:49;;;;;;;25.35;16.45;;;;;;;10.71;81.17;99741.06;5073418;28;20177;-60
2023/01/01 09:23:15;;;;;;;21.63;15.80;;;;;;;10.82;80.58;99744.84;5073658;28;20256;-60
2023/01/01 09:25:40;;;;;;;22.90;15.77;;;;;;;11.16;79.71;99788.88;5072343;28;20177;-60
2023/01/01 09:28:10;;;;;;;19.65;15.30;;;;;;;11.23;78.83;99781.66;5073540;28;20193;-60
2023/01/01 09:30:35;;;;;;;24.35;15.77;;;;;;;11.17;78.48;99761.22;5073281;28;20173;-60
2023/01/01 09:33:02;;;;;;;24.83;15.55;;;;;;;11.28;77.87;99762.38;5073959;28;20661;-60
2023/01/01 09:35:28;;;;;;;23.02;16.25;;;;;;;11.27;77.75;99763.28;5073980;28;20185;-60
2023/01/01 09:37:54;;;;;;;24.25;16.58;;;;;;;11.13;77.07;99719.09;5072813;28;20612;-60
2023/01/01 09:40:42;;;;;;;23.13;15.43;;;;;;;11.24;75.81;99713.38;5073651;28;20173;-60
2023/01/01 09:43:29;;;;;;;24.20;16.60;;;;;;;11.28;76.19;99717.50;5073302;28;20610;-60
2023/01/01 09:46:02;;;;;;;24.63;17.58;;;;;;;11.68;76.31;99758.63;5072993;28;20177;-60
2023/01/01 09:48:30;;;;;;;26.88;18.05;;;;;;;11.75;76.29;99762.59;5073725;28;20193;-60
2023/01/01 09:50:57;;;;;;;32.65;20.20;;;;;;;11.81;75.71;99741.50;5072873;28;20185;-60
2023/01/01 09:53:44;;;;;;;30.80;19.40;;;;;;;11.92;75.57;99753.03;5072806;28;20264;-60
2023/01/01 09:56:20;;;;;;;31.38;20.75;;;;;;;11.72;75.46;99701.34;5072819;28;20650;-60
2023/01/01 09:58:45;;;;;;;38.22;23.35;;;;;;;11.96;75.42;99735.53;5072777;28;20169;-60
2023/01/01 10:01:41;;;;;;;35.13;24.27;;;;;;;12.05;75.57;99742.81;5073247;28;20234;-60
2023/01/01 10:04:34;;;;;;;34.63;21.08;;;;;;;12.14;74.98;99737.16;5072643;28;20179;-60
2023/01/01 10:07:24;;;;;;;31.10;20.90;;;;;;;12.14;76.01;99732.78;5073154;28;20188;-60
2023/01/01 10:09:57;;;;;;;30.08;19.00;;;;;;;12.17;76.01;99719.66;5072959;28;20679;-60
2023/01/01 10:13:04;;;;;;;25.70;19.13;;;;;;;12.20;76.82;99726.44;5072690;28;20168;-60
2023/01/01 10:15:38;;;;;;;30.67;18.50;;;;;;;11.70;77.36;99624.56;5072601;28;20173;-60
2023/01/01 10:18:13;;;;;;;28.55;19.02;;;;;;;12.25;77.78;99703.66;5073203;28;20161;-60
2023/01/01 10:20:45;;;;;;;24.92;17.38;;;;;;;12.06;77.68;99666.66;5072439;28;20173;-61
2023/01/01 10:23:17;;;;;;;25.17;16.60;;;;;;;12.38;77.04;99709.84;5072450;28;20636;-60
2023/01/01 10:25:43;;;;;;;24.85;16.40;;;;;;;12.42;76.71;99701.00;5072442;28;20201;-60
2023/01/01 10:28:22;;;;;;;25.70;16.50;;;;;;;12.51;76.65;99711.69;5072327;28;20207;-60
2023/01/01 10:30:50;;;;;;;24.33;12.73;;;;;;;12.21;77.07;99639.88;5071938;28;20180;-60
2023/01/01 10:33:16;;;;;;;16.15;11.88;;;;;;;12.54;77.23;99695.94;5072805;28;20248;-60
2023/01/01 10:35:49;;;;;;;15.90;10.18;;;;;;;12.53;77.02;99677.84;5073152;28;20213;-60
2023/01/01 10:38:23;;;;;;;16.90;9.55;;;;;;;12.69;77.01;99707.22;5050302;28;20564;-60
2023/01/01 10:40:51;;;;;;;15.73;10.15;;;;;;;12.52;75.81;99655.41;5050062;28;20193;-60
2023/01/01 10:43:17;;;;;;;25.08;11.00;;;;;;;12.76;75.42;99690.34;5050335;28;20189;-59
2023/01/01 10:45:47;;;;;;;15.57;10.45;;;;;;;12.39;75.18;99615.47;5050138;28;20190;-59
2023/01/01 10:48:23;;;;;;;15.63;12.35;;;;;;;12.93;75.51;99693.69;5049811;28;20204;-59
2023/01/01 10:50:59;;;;;;;17.13;13.27;;;;;;;13.10;75.80;99710.91;5050054;28;20247;-59
2023/01/01 10:53:30;;;;;;;15.00;10.25;;;;;;;13.24;74.90;99709.19;5049762;28;20185;-59
2023/01/01 10:56:03;;;;;;;14.80;11.32;;;;;;;13.32;74.44;99706.13;5050303;28;20198;-59
2023/01/01 10:58:36;;;;;;;14.75;10.80;;;;;;;13.07;74.76;99659.13;5050012;28;20188;-59
2023/01/01 11:01:04;;;;;;;14.95;10.95;;;;;;;12.98;75.29;99633.69;5049620;28;20177;-59
2023/01/01 11:03:29;;;;;;;24.42;15.25;;;;;;;13.35;75.35;99698.16;5050224;28;20205;-59
2023/01/01 11:06:06;;;;;;;16.40;12.70;;;;;;;13.34;75.11;99686.06;5049654;28;20177;-59
2023/01/01 11:08:33;;;;;;;14.73;11.48;;;;;;;13.36;75.52;99682.47;5050382;28;20620;-59
2023/01/01 11:11:01;;;;;;;14.07;10.73;;;;;;;13.31;75.30;99671.50;5050433;28;20198;-60
2023/01/01 11:13:28;;;;;;;14.52;10.38;;;;;;;13.15;75.02;99636.97;5049561;28;20311;-60
2023/01/01 11:15:54;;;;;;;13.43;10.15;;;;;;;12.96;74.83;99601.75;5062978;28;20189;-60
2023/01/01 11:18:34;;;;;;;12.65;9.85;;;;;;;13.51;74.60;99683.31;5072241;28;20179;-60
2023/01/01 11:21:01;;;;;;;15.32;10.80;;;;;;;13.25;74.96;99637.25;5071944;28;20173;-60
2023/01/01 11:23:36;;;;;;;14.43;10.30;;;;;;;13.44;75.54;99677.66;5071855;28;20173;-60
2023/01/01 11:26:18;;;;;;;14.63;11.05;;;;;;;13.22;75.92;99633.06;5072747;28;20173;-60
2023/01/01 11:28:58;;;;;;;22.50;15.35;;;;;;;13.46;76.04;99673.19;5072635;28;20197;-60
2023/01/01 11:31:29;;;;;;;17.63;11.80;;;;;;;12.97;76.03;99580.03;5072440;28;20338;-59
2023/01/01 11:33:56;;;;;;;14.77;12.02;;;;;;;13.12;76.19;99621.53;5071778;28;20174;-60
2023/01/01 11:36:23;;;;;;;18.58;12.73;;;;;;;13.35;76.82;99666.97;5071718;28;20188;-59
2023/01/01 11:39:18;;;;;;;14.90;11.30;;;;;;;13.27;77.43;99666.56;5072174;28;20200;-59
2023/01/01 11:41:47;;;;;;;16.90;11.80;;;;;;;13.13;77.91;99646.59;5071664;28;20238;-59